createdAt,value
2018-07-13T00:00:56.784Z,4.73
2018-07-13T00:05:51.204Z,4.87
2018-07-13T00:10:45.596Z,5.00
2018-07-13T00:15:55.524Z,4.90
2018-07-13T00:20:49.956Z,4.70
2018-07-13T00:25:44.406Z,5.10
2018-07-13T00:30:38.522Z,4.87
2018-07-13T00:35:32.932Z,5.00
2018-07-13T00:40:27.355Z,5.20
2018-07-13T00:45:21.797Z,4.50
2018-07-13T00:50:16.220Z,4.90
2018-07-13T00:55:10.655Z,7.37
2018-07-13T01:00:04.828Z,5.17
2018-07-13T01:04:59.308Z,5.47
2018-07-13T01:09:53.745Z,5.57
2018-07-13T01:14:48.241Z,5.63
2018-07-13T01:19:42.668Z,5.27
2018-07-13T01:24:37.057Z,6.53
2018-07-13T01:29:31.483Z,6.03
2018-07-13T01:34:25.915Z,5.70
2018-07-13T01:39:20.335Z,6.70
2018-07-13T01:44:14.474Z,5.80
2018-07-13T01:49:08.867Z,5.73
2018-07-13T01:54:03.316Z,4.90
2018-07-13T01:58:57.708Z,5.70
2018-07-13T02:03:52.160Z,5.30
2018-07-13T02:08:46.760Z,5.67
2018-07-13T02:13:41.224Z,6.27
2018-07-13T02:18:35.609Z,7.23
2018-07-13T02:23:30.000Z,5.43
2018-07-13T02:28:24.408Z,6.93
2018-07-13T02:33:18.827Z,6.37
2018-07-13T02:38:13.289Z,7.03
2018-07-13T02:43:07.699Z,6.20
2018-07-13T02:48:02.124Z,6.43
2018-07-13T02:52:56.270Z,7.20
2018-07-13T02:57:50.692Z,5.63
2018-07-13T03:02:45.129Z,5.87
2018-07-13T03:07:39.553Z,9.00
2018-07-13T03:12:34.010Z,5.73
2018-07-13T03:17:28.493Z,7.00
2018-07-13T03:22:22.921Z,6.23
2018-07-13T03:27:17.361Z,7.17
2018-07-13T03:32:11.757Z,6.90
2018-07-13T03:37:06.188Z,7.17
2018-07-13T03:42:00.613Z,7.10
2018-07-13T03:46:55.004Z,6.90
2018-07-13T03:51:49.451Z,7.07
2018-07-13T03:56:43.913Z,7.33
2018-07-13T04:01:38.359Z,6.93
2018-07-13T04:06:32.873Z,7.67
2018-07-13T04:11:27.347Z,6.73
2018-07-13T04:16:21.948Z,6.07
2018-07-13T04:21:16.407Z,6.37
2018-07-13T04:26:10.916Z,6.30
2018-07-13T04:31:05.424Z,6.10
2018-07-13T04:35:59.881Z,5.42
2018-07-13T04:40:54.532Z,6.60
2018-07-13T04:45:49.024Z,7.53
2018-07-13T04:50:43.227Z,6.65
2018-07-13T04:55:37.765Z,7.80
2018-07-13T05:00:32.387Z,6.25
2018-07-13T05:05:26.966Z,5.50
2018-07-13T05:10:21.667Z,6.30
2018-07-13T05:15:16.182Z,7.22
2018-07-13T05:20:10.709Z,5.85
2018-07-13T05:25:05.956Z,4.87
2018-07-13T05:30:01.595Z,5.20
2018-07-13T05:34:57.060Z,5.65
2018-07-13T05:39:51.649Z,6.20
2018-07-13T05:44:46.500Z,5.37
2018-07-13T05:49:41.123Z,7.30
2018-07-13T05:54:35.430Z,5.35
2018-07-13T05:59:29.967Z,6.58
2018-07-13T06:04:24.451Z,7.87
2018-07-13T06:09:18.902Z,6.97
2018-07-13T06:14:13.336Z,11.75
2018-07-13T06:19:07.887Z,10.55
2018-07-13T06:24:02.792Z,6.47
2018-07-13T06:28:57.289Z,6.17
2018-07-13T06:33:51.737Z,6.30
2018-07-13T06:38:46.402Z,7.03
2018-07-13T06:43:41.526Z,7.40
2018-07-13T06:48:42.162Z,7.37
2018-07-13T06:53:40.616Z,7.37
2018-07-13T06:58:51.968Z,6.78
2018-07-13T07:04:57.386Z,8.33
2018-07-13T07:10:01.048Z,8.15
2018-07-13T07:14:56.896Z,8.53
2018-07-13T07:19:51.574Z,6.75
2018-07-13T07:24:46.206Z,8.75
2018-07-13T07:29:59.416Z,6.67
2018-07-13T07:34:53.914Z,9.75
2018-07-13T07:39:54.864Z,11.48
2018-07-13T07:44:49.717Z,12.20
2018-07-13T07:49:44.158Z,7.22
2018-07-13T07:54:38.564Z,9.03
2018-07-13T07:59:33.056Z,7.40
2018-07-13T08:04:27.883Z,11.10
2018-07-13T08:09:22.617Z,9.00
2018-07-13T08:14:17.781Z,9.78
2018-07-13T08:19:12.618Z,15.08
2018-07-13T08:24:07.811Z,7.47
2018-07-13T08:29:03.249Z,8.70
2018-07-13T08:33:57.415Z,8.28
2018-07-13T08:38:52.216Z,10.65
2018-07-13T08:43:47.103Z,7.05
2018-07-13T08:48:41.825Z,8.75
2018-07-13T08:53:37.019Z,7.17
2018-07-13T08:58:31.524Z,9.58
2018-07-13T09:03:27.329Z,5.92
2018-07-13T09:08:23.126Z,7.50
2018-07-13T09:13:19.202Z,9.08
2018-07-13T09:18:14.045Z,6.72
2018-07-13T09:23:09.035Z,10.90
2018-07-13T09:28:03.930Z,7.83
2018-07-13T09:32:58.838Z,7.72
2018-07-13T09:37:53.461Z,7.47
2018-07-13T09:42:49.168Z,5.80
2018-07-13T09:47:44.473Z,6.30
2018-07-13T09:52:39.703Z,7.42
2018-07-13T09:57:34.456Z,8.68
2018-07-13T10:02:29.020Z,15.23
2018-07-13T10:07:23.709Z,4.50
2018-07-13T10:12:18.161Z,4.28
2018-07-13T10:17:12.694Z,7.35
2018-07-13T10:22:07.203Z,8.08
2018-07-13T10:27:01.820Z,10.45
2018-07-13T10:31:56.584Z,6.65
2018-07-13T10:37:00.480Z,3.42
2018-07-13T10:41:55.148Z,3.83
2018-07-13T10:46:53.325Z,3.75
2018-07-13T10:51:48.799Z,3.50
2018-07-13T10:56:43.207Z,3.87
2018-07-13T11:01:47.566Z,3.37
2018-07-13T11:06:42.677Z,3.40
2018-07-13T11:11:37.644Z,2.90
2018-07-13T11:16:32.281Z,5.10
2018-07-13T11:21:26.788Z,4.05
2018-07-13T11:26:21.236Z,3.27
2018-07-13T11:31:15.512Z,3.42
2018-07-13T11:36:09.697Z,4.28
2018-07-13T11:41:04.535Z,3.10
2018-07-13T11:46:06.650Z,3.77
2018-07-13T11:51:01.855Z,2.95
2018-07-13T11:55:56.381Z,4.03
2018-07-13T12:00:51.015Z,6.00
2018-07-13T12:05:46.127Z,3.87
2018-07-13T12:10:40.557Z,2.55
2018-07-13T12:15:34.775Z,3.35
2018-07-13T12:20:29.252Z,4.10
2018-07-13T12:25:23.749Z,3.05
2018-07-13T12:30:18.244Z,2.30
2018-07-13T12:35:12.694Z,2.83
2018-07-13T12:40:07.269Z,2.87
2018-07-13T12:45:01.904Z,3.20
2018-07-13T12:49:56.399Z,2.00
2018-07-13T12:54:50.606Z,3.42
2018-07-13T12:59:45.092Z,1.60
2018-07-13T13:04:42.710Z,5.00
2018-07-13T13:09:37.544Z,3.22
2018-07-13T13:14:32.209Z,2.98
2018-07-13T13:19:28.036Z,2.77
2018-07-13T13:24:22.785Z,2.77
2018-07-13T13:29:21.970Z,2.33
2018-07-13T13:34:16.401Z,2.85
2018-07-13T13:39:11.193Z,2.50
2018-07-13T13:44:05.629Z,3.40
2018-07-13T13:49:00.068Z,3.45
2018-07-13T13:53:54.323Z,2.52
2018-07-13T13:58:49.548Z,4.15
2018-07-13T14:03:45.677Z,2.77
2018-07-13T14:08:40.660Z,4.60
2018-07-13T14:13:35.605Z,2.75
2018-07-13T14:18:30.525Z,3.08
2018-07-13T14:23:24.752Z,3.45
2018-07-13T14:28:19.269Z,3.58
2018-07-13T14:33:13.837Z,4.58
2018-07-13T14:38:08.326Z,2.47
2018-07-13T14:43:02.935Z,3.60
2018-07-13T14:47:57.681Z,6.55
2018-07-13T14:52:53.172Z,4.45
2018-07-13T14:57:47.807Z,3.00
2018-07-13T15:02:42.080Z,4.12
2018-07-13T15:07:36.845Z,3.02
2018-07-13T15:12:31.046Z,2.10
2018-07-13T15:17:25.569Z,2.47
2018-07-13T15:22:20.117Z,2.83
2018-07-13T15:27:14.572Z,4.37
2018-07-13T15:32:09.252Z,2.60
2018-07-13T15:37:03.741Z,2.58
2018-07-13T15:41:58.324Z,2.33
2018-07-13T15:47:00.090Z,3.60
2018-07-13T15:51:54.893Z,4.90
2018-07-13T15:56:49.837Z,4.58
2018-07-13T16:01:44.408Z,2.00
2018-07-13T16:06:39.471Z,3.05
2018-07-13T16:11:34.097Z,3.47
2018-07-13T16:16:28.681Z,3.05
2018-07-13T16:21:23.252Z,4.30
2018-07-13T16:26:17.843Z,3.12
2018-07-13T16:31:12.473Z,2.15
2018-07-13T16:36:07.149Z,3.35
2018-07-13T16:41:01.697Z,4.28
2018-07-13T16:45:56.279Z,4.12
2018-07-13T16:50:51.008Z,2.10
2018-07-13T16:55:45.652Z,2.65
2018-07-13T17:00:40.574Z,2.58
2018-07-13T17:05:35.141Z,2.40
2018-07-13T17:10:29.735Z,3.58
2018-07-13T17:15:24.272Z,3.00
2018-07-13T17:20:18.879Z,6.08
2018-07-13T17:25:13.525Z,5.15
2018-07-13T17:30:10.180Z,4.58
2018-07-13T17:35:05.134Z,3.05
2018-07-13T17:39:59.332Z,2.87
2018-07-13T17:44:53.944Z,4.17
2018-07-13T17:49:48.701Z,3.22
2018-07-13T17:54:43.493Z,3.60
2018-07-13T17:59:37.802Z,3.17
2018-07-13T18:04:32.038Z,2.80
2018-07-13T18:09:26.666Z,4.08
2018-07-13T18:14:21.188Z,5.70
2018-07-13T18:19:15.976Z,3.55
2018-07-13T18:24:11.150Z,3.95
2018-07-13T18:29:06.085Z,2.72
2018-07-13T18:34:00.625Z,5.28
2018-07-13T18:38:55.233Z,3.62
2018-07-13T18:43:50.481Z,4.17
2018-07-13T18:48:45.005Z,3.25
2018-07-13T18:53:39.560Z,5.15
2018-07-13T18:58:34.070Z,3.52
2018-07-13T19:03:28.718Z,4.55
2018-07-13T19:08:23.272Z,5.80
2018-07-13T19:13:18.246Z,4.08
2018-07-13T19:18:12.938Z,4.05
2018-07-13T19:23:07.476Z,6.80
2018-07-13T19:28:02.184Z,6.10
2018-07-13T19:32:56.681Z,3.58
2018-07-13T19:37:51.864Z,6.47
2018-07-13T19:42:46.649Z,7.67
2018-07-13T19:47:41.184Z,4.42
2018-07-13T19:52:35.841Z,4.60
2018-07-13T19:57:30.704Z,5.45
2018-07-13T20:02:25.223Z,7.28
2018-07-13T20:07:19.843Z,7.62
2018-07-13T20:12:14.449Z,5.28
2018-07-13T20:17:09.392Z,5.25
2018-07-13T20:22:03.916Z,5.28
2018-07-13T20:26:58.729Z,6.08
2018-07-13T20:31:53.257Z,4.70
2018-07-13T20:36:47.809Z,5.45
2018-07-13T20:41:42.048Z,5.35
2018-07-13T20:46:36.584Z,4.20
2018-07-13T20:51:31.113Z,5.33
2018-07-13T20:56:25.701Z,4.53
2018-07-13T21:01:20.312Z,6.90
2018-07-13T21:06:14.855Z,5.75
2018-07-13T21:11:09.390Z,7.17
2018-07-13T21:16:03.925Z,8.83
2018-07-13T21:20:58.612Z,9.10
2018-07-13T21:25:52.834Z,10.48
2018-07-13T21:30:47.394Z,5.85
2018-07-13T21:35:41.941Z,5.40
2018-07-13T21:40:36.490Z,4.75
2018-07-13T21:45:31.097Z,7.22
2018-07-13T21:50:25.682Z,5.15
2018-07-13T21:55:20.808Z,6.58
2018-07-13T22:00:15.409Z,5.05
2018-07-13T22:05:09.951Z,5.28
2018-07-13T22:10:04.431Z,5.58
2018-07-13T22:14:58.981Z,6.87
2018-07-13T22:19:54.116Z,8.58
2018-07-13T22:24:49.058Z,5.55
2018-07-13T22:29:43.585Z,6.83
2018-07-13T22:34:38.177Z,4.80
2018-07-13T22:39:32.696Z,6.55
2018-07-13T22:44:27.228Z,5.40
2018-07-13T22:49:21.765Z,6.13
2018-07-13T22:54:16.275Z,7.87
2018-07-13T22:59:10.847Z,8.13
2018-07-13T23:04:05.395Z,6.57
2018-07-13T23:08:59.892Z,6.37
2018-07-13T23:13:54.368Z,5.70
2018-07-13T23:18:48.921Z,5.10
2018-07-13T23:23:43.481Z,5.23
2018-07-13T23:28:38.005Z,7.77
2018-07-13T23:33:32.490Z,5.43
2018-07-13T23:38:27.001Z,7.23
2018-07-13T23:43:21.509Z,9.07
2018-07-13T23:48:15.980Z,14.37
2018-07-13T23:53:10.453Z,11.90
2018-07-13T23:58:04.928Z,9.23
